sensor_id;sensor_type;location;lat;lon;timestamp;P1;durP1;ratioP1;P2;durP2;ratioP2
2161;SDS011;1087;50.226;8.682;2022-09-09T00:00:50;1.73;;;1.60;;
2161;SDS011;1087;50.226;8.682;2022-09-09T00:03:23;3.07;;;1.70;;
2161;SDS011;1087;50.226;8.682;2022-09-09T00:11:54;3.73;;;1.90;;
2161;SDS011;1087;50.226;8.682;2022-09-09T00:17:06;2.57;;;1.93;;
2161;SDS011;1087;50.226;8.682;2022-09-09T00:19:38;1.93;;;1.73;;
2161;SDS011;1087;50.226;8.682;2022-09-09T00:22:18;4.23;;;1.70;;
2161;SDS011;1087;50.226;8.682;2022-09-09T00:24:52;2.17;;;1.83;;
2161;SDS011;1087;50.226;8.682;2022-09-09T00:27:27;1.70;;;1.57;;
2161;SDS011;1087;50.226;8.682;2022-09-09T00:32:45;3.60;;;2.07;;
2161;SDS011;1087;50.226;8.682;2022-09-09T00:35:22;5.50;;;2.10;;
2161;SDS011;1087;50.226;8.682;2022-09-09T00:37:51;3.00;;;1.93;;
2161;SDS011;1087;50.226;8.682;2022-09-09T00:40:29;2.17;;;1.40;;
2161;SDS011;1087;50.226;8.682;2022-09-09T00:48:47;3.67;;;1.63;;
2161;SDS011;1087;50.226;8.682;2022-09-09T00:57:11;3.40;;;2.07;;
2161;SDS011;1087;50.226;8.682;2022-09-09T00:59:48;3.50;;;2.23;;
2161;SDS011;1087;50.226;8.682;2022-09-09T01:02:28;3.77;;;2.23;;
2161;SDS011;1087;50.226;8.682;2022-09-09T01:04:59;3.07;;;1.80;;
2161;SDS011;1087;50.226;8.682;2022-09-09T01:07:32;4.30;;;2.27;;
2161;SDS011;1087;50.226;8.682;2022-09-09T01:09:58;3.60;;;1.93;;
2161;SDS011;1087;50.226;8.682;2022-09-09T01:12:42;2.57;;;2.20;;
2161;SDS011;1087;50.226;8.682;2022-09-09T01:20:23;3.67;;;2.80;;
2161;SDS011;1087;50.226;8.682;2022-09-09T01:28:47;3.13;;;2.40;;
2161;SDS011;1087;50.226;8.682;2022-09-09T01:31:17;4.87;;;2.20;;
2161;SDS011;1087;50.226;8.682;2022-09-09T01:33:46;6.90;;;2.47;;
2161;SDS011;1087;50.226;8.682;2022-09-09T01:36:14;2.63;;;2.43;;
2161;SDS011;1087;50.226;8.682;2022-09-09T01:38:43;2.83;;;2.03;;
2161;SDS011;1087;50.226;8.682;2022-09-09T01:41:09;2.63;;;2.33;;
2161;SDS011;1087;50.226;8.682;2022-09-09T01:43:34;2.57;;;1.90;;
2161;SDS011;1087;50.226;8.682;2022-09-09T01:46:00;2.57;;;2.00;;
2161;SDS011;1087;50.226;8.682;2022-09-09T01:48:27;3.23;;;2.10;;
2161;SDS011;1087;50.226;8.682;2022-09-09T01:50:53;5.13;;;3.17;;
2161;SDS011;1087;50.226;8.682;2022-09-09T01:53:19;6.70;;;2.40;;
2161;SDS011;1087;50.226;8.682;2022-09-09T01:55:56;3.43;;;2.33;;
2161;SDS011;1087;50.226;8.682;2022-09-09T01:58:31;3.67;;;2.20;;
2161;SDS011;1087;50.226;8.682;2022-09-09T02:01:05;2.63;;;2.20;;
2161;SDS011;1087;50.226;8.682;2022-09-09T02:03:31;3.23;;;2.13;;
2161;SDS011;1087;50.226;8.682;2022-09-09T02:08:48;3.13;;;2.40;;
2161;SDS011;1087;50.226;8.682;2022-09-09T02:11:19;2.80;;;2.47;;
2161;SDS011;1087;50.226;8.682;2022-09-09T02:13:47;3.43;;;2.63;;
2161;SDS011;1087;50.226;8.682;2022-09-09T02:16:18;5.30;;;2.30;;
2161;SDS011;1087;50.226;8.682;2022-09-09T02:18:51;4.30;;;2.50;;
2161;SDS011;1087;50.226;8.682;2022-09-09T02:21:27;3.77;;;2.60;;
2161;SDS011;1087;50.226;8.682;2022-09-09T02:23:55;5.27;;;2.53;;
2161;SDS011;1087;50.226;8.682;2022-09-09T02:26:24;2.77;;;2.37;;
2161;SDS011;1087;50.226;8.682;2022-09-09T02:28:51;8.30;;;4.30;;
2161;SDS011;1087;50.226;8.682;2022-09-09T02:31:21;7.53;;;3.70;;
2161;SDS011;1087;50.226;8.682;2022-09-09T02:33:53;5.03;;;3.33;;
2161;SDS011;1087;50.226;8.682;2022-09-09T02:36:23;2.70;;;2.20;;
2161;SDS011;1087;50.226;8.682;2022-09-09T02:38:50;4.27;;;2.43;;
2161;SDS011;1087;50.226;8.682;2022-09-09T02:41:32;3.27;;;2.40;;
2161;SDS011;1087;50.226;8.682;2022-09-09T02:43:59;4.07;;;2.80;;
2161;SDS011;1087;50.226;8.682;2022-09-09T02:52:32;3.40;;;1.90;;
2161;SDS011;1087;50.226;8.682;2022-09-09T02:58:01;4.53;;;2.70;;
2161;SDS011;1087;50.226;8.682;2022-09-09T03:00:30;3.37;;;3.10;;
2161;SDS011;1087;50.226;8.682;2022-09-09T03:02:57;3.37;;;3.07;;
2161;SDS011;1087;50.226;8.682;2022-09-09T03:05:23;3.67;;;2.80;;
2161;SDS011;1087;50.226;8.682;2022-09-09T03:07:48;2.80;;;2.60;;
2161;SDS011;1087;50.226;8.682;2022-09-09T03:10:15;4.73;;;2.87;;
2161;SDS011;1087;50.226;8.682;2022-09-09T03:12:42;5.07;;;3.10;;
2161;SDS011;1087;50.226;8.682;2022-09-09T03:15:07;6.63;;;3.00;;
2161;SDS011;1087;50.226;8.682;2022-09-09T03:17:34;2.93;;;2.73;;
2161;SDS011;1087;50.226;8.682;2022-09-09T03:20:00;5.30;;;3.07;;
2161;SDS011;1087;50.226;8.682;2022-09-09T03:22:27;4.47;;;2.90;;
2161;SDS011;1087;50.226;8.682;2022-09-09T03:24:53;4.10;;;2.53;;
2161;SDS011;1087;50.226;8.682;2022-09-09T03:27:18;4.87;;;3.20;;
2161;SDS011;1087;50.226;8.682;2022-09-09T03:29:44;2.90;;;2.70;;
2161;SDS011;1087;50.226;8.682;2022-09-09T03:32:10;2.77;;;2.57;;
2161;SDS011;1087;50.226;8.682;2022-09-09T03:34:37;3.50;;;2.90;;
2161;SDS011;1087;50.226;8.682;2022-09-09T03:37:05;3.60;;;3.30;;
2161;SDS011;1087;50.226;8.682;2022-09-09T03:39:31;5.00;;;2.90;;
2161;SDS011;1087;50.226;8.682;2022-09-09T03:41:56;4.03;;;2.93;;
2161;SDS011;1087;50.226;8.682;2022-09-09T03:44:22;2.80;;;2.60;;
2161;SDS011;1087;50.226;8.682;2022-09-09T03:46:47;3.17;;;2.80;;
2161;SDS011;1087;50.226;8.682;2022-09-09T03:49:13;5.87;;;3.00;;
2161;SDS011;1087;50.226;8.682;2022-09-09T03:51:38;3.47;;;2.83;;
2161;SDS011;1087;50.226;8.682;2022-09-09T03:54:05;5.20;;;3.23;;
2161;SDS011;1087;50.226;8.682;2022-09-09T03:56:33;4.17;;;2.90;;
2161;SDS011;1087;50.226;8.682;2022-09-09T03:58:59;3.10;;;2.70;;
2161;SDS011;1087;50.226;8.682;2022-09-09T04:01:24;3.23;;;2.60;;
2161;SDS011;1087;50.226;8.682;2022-09-09T04:03:50;4.67;;;2.60;;
2161;SDS011;1087;50.226;8.682;2022-09-09T04:06:16;3.13;;;2.83;;
2161;SDS011;1087;50.226;8.682;2022-09-09T04:08:42;3.23;;;2.90;;
2161;SDS011;1087;50.226;8.682;2022-09-09T04:11:09;4.53;;;3.50;;
2161;SDS011;1087;50.226;8.682;2022-09-09T04:13:34;2.90;;;2.60;;
2161;SDS011;1087;50.226;8.682;2022-09-09T04:16:02;2.97;;;2.60;;
2161;SDS011;1087;50.226;8.682;2022-09-09T04:18:28;4.90;;;3.00;;
2161;SDS011;1087;50.226;8.682;2022-09-09T04:20:54;6.23;;;3.03;;
2161;SDS011;1087;50.226;8.682;2022-09-09T04:23:23;3.07;;;2.70;;
2161;SDS011;1087;50.226;8.682;2022-09-09T04:25:53;4.00;;;3.10;;
2161;SDS011;1087;50.226;8.682;2022-09-09T04:28:20;3.87;;;2.90;;
2161;SDS011;1087;50.226;8.682;2022-09-09T04:30:47;2.70;;;2.50;;
2161;SDS011;1087;50.226;8.682;2022-09-09T04:33:13;3.43;;;3.13;;
2161;SDS011;1087;50.226;8.682;2022-09-09T04:35:43;4.10;;;2.67;;
2161;SDS011;1087;50.226;8.682;2022-09-09T04:38:10;3.70;;;2.70;;
2161;SDS011;1087;50.226;8.682;2022-09-09T04:40:36;4.43;;;2.77;;
2161;SDS011;1087;50.226;8.682;2022-09-09T04:43:02;2.90;;;2.50;;
2161;SDS011;1087;50.226;8.682;2022-09-09T04:45:29;3.97;;;3.00;;
2161;SDS011;1087;50.226;8.682;2022-09-09T04:47:55;3.60;;;3.10;;
2161;SDS011;1087;50.226;8.682;2022-09-09T04:50:21;6.40;;;3.67;;
2161;SDS011;1087;50.226;8.682;2022-09-09T04:52:47;3.50;;;3.03;;
2161;SDS011;1087;50.226;8.682;2022-09-09T04:55:12;4.90;;;3.13;;
2161;SDS011;1087;50.226;8.682;2022-09-09T04:57:38;5.10;;;3.07;;
2161;SDS011;1087;50.226;8.682;2022-09-09T05:00:04;5.50;;;3.20;;
2161;SDS011;1087;50.226;8.682;2022-09-09T05:02:31;4.87;;;3.00;;
2161;SDS011;1087;50.226;8.682;2022-09-09T05:04:57;3.77;;;3.07;;
2161;SDS011;1087;50.226;8.682;2022-09-09T05:07:23;4.90;;;3.20;;
2161;SDS011;1087;50.226;8.682;2022-09-09T05:09:48;3.50;;;2.90;;
2161;SDS011;1087;50.226;8.682;2022-09-09T05:12:14;7.60;;;3.30;;
2161;SDS011;1087;50.226;8.682;2022-09-09T05:14:41;4.70;;;4.30;;
2161;SDS011;1087;50.226;8.682;2022-09-09T05:17:07;3.20;;;2.90;;
2161;SDS011;1087;50.226;8.682;2022-09-09T05:19:33;3.90;;;3.50;;
2161;SDS011;1087;50.226;8.682;2022-09-09T05:21:58;3.60;;;3.23;;
2161;SDS011;1087;50.226;8.682;2022-09-09T05:24:25;3.73;;;3.00;;
2161;SDS011;1087;50.226;8.682;2022-09-09T05:26:50;5.67;;;3.37;;
2161;SDS011;1087;50.226;8.682;2022-09-09T05:29:16;4.90;;;3.37;;
2161;SDS011;1087;50.226;8.682;2022-09-09T05:31:44;5.03;;;3.57;;
2161;SDS011;1087;50.226;8.682;2022-09-09T05:34:12;3.23;;;2.93;;
2161;SDS011;1087;50.226;8.682;2022-09-09T05:36:38;3.20;;;2.80;;
2161;SDS011;1087;50.226;8.682;2022-09-09T05:39:03;4.03;;;2.77;;
2161;SDS011;1087;50.226;8.682;2022-09-09T05:41:29;3.97;;;3.17;;
2161;SDS011;1087;50.226;8.682;2022-09-09T05:43:55;2.33;;;2.13;;
2161;SDS011;1087;50.226;8.682;2022-09-09T05:46:22;3.67;;;2.30;;
2161;SDS011;1087;50.226;8.682;2022-09-09T05:48:49;3.43;;;2.60;;
2161;SDS011;1087;50.226;8.682;2022-09-09T05:51:17;3.73;;;2.50;;
2161;SDS011;1087;50.226;8.682;2022-09-09T05:53:47;3.67;;;2.73;;
2161;SDS011;1087;50.226;8.682;2022-09-09T05:56:14;2.93;;;2.60;;
2161;SDS011;1087;50.226;8.682;2022-09-09T05:58:42;3.50;;;2.60;;
2161;SDS011;1087;50.226;8.682;2022-09-09T06:03:41;4.00;;;2.93;;
2161;SDS011;1087;50.226;8.682;2022-09-09T06:06:09;2.57;;;2.37;;
2161;SDS011;1087;50.226;8.682;2022-09-09T06:08:38;3.90;;;2.80;;
2161;SDS011;1087;50.226;8.682;2022-09-09T06:11:15;4.87;;;2.50;;
2161;SDS011;1087;50.226;8.682;2022-09-09T06:13:48;3.97;;;2.60;;
2161;SDS011;1087;50.226;8.682;2022-09-09T06:16:17;3.33;;;2.53;;
2161;SDS011;1087;50.226;8.682;2022-09-09T06:18:44;4.83;;;3.20;;
2161;SDS011;1087;50.226;8.682;2022-09-09T06:21:16;2.93;;;2.30;;
2161;SDS011;1087;50.226;8.682;2022-09-09T06:23:43;3.00;;;2.80;;
2161;SDS011;1087;50.226;8.682;2022-09-09T06:26:13;3.00;;;2.60;;
2161;SDS011;1087;50.226;8.682;2022-09-09T06:28:42;3.63;;;2.40;;
2161;SDS011;1087;50.226;8.682;2022-09-09T06:31:09;5.50;;;2.43;;
2161;SDS011;1087;50.226;8.682;2022-09-09T06:33:37;4.03;;;3.33;;
2161;SDS011;1087;50.226;8.682;2022-09-09T06:36:13;2.83;;;2.60;;
2161;SDS011;1087;50.226;8.682;2022-09-09T06:38:43;6.40;;;2.60;;
2161;SDS011;1087;50.226;8.682;2022-09-09T06:41:09;3.13;;;2.30;;
2161;SDS011;1087;50.226;8.682;2022-09-09T06:43:36;3.53;;;2.73;;
2161;SDS011;1087;50.226;8.682;2022-09-09T06:46:03;3.23;;;2.20;;
2161;SDS011;1087;50.226;8.682;2022-09-09T06:48:29;4.47;;;2.87;;
2161;SDS011;1087;50.226;8.682;2022-09-09T06:51:02;3.43;;;2.30;;
2161;SDS011;1087;50.226;8.682;2022-09-09T06:53:29;4.80;;;2.87;;
2161;SDS011;1087;50.226;8.682;2022-09-09T06:55:55;4.20;;;2.90;;
2161;SDS011;1087;50.226;8.682;2022-09-09T06:58:20;6.33;;;2.60;;
2161;SDS011;1087;50.226;8.682;2022-09-09T07:00:49;3.50;;;2.40;;
2161;SDS011;1087;50.226;8.682;2022-09-09T07:03:14;3.83;;;2.37;;
2161;SDS011;1087;50.226;8.682;2022-09-09T07:05:40;3.37;;;2.30;;
2161;SDS011;1087;50.226;8.682;2022-09-09T07:08:05;6.80;;;2.70;;
2161;SDS011;1087;50.226;8.682;2022-09-09T07:10:31;2.90;;;2.63;;
2161;SDS011;1087;50.226;8.682;2022-09-09T07:12:59;5.83;;;2.47;;
2161;SDS011;1087;50.226;8.682;2022-09-09T07:15:25;3.50;;;2.40;;
2161;SDS011;1087;50.226;8.682;2022-09-09T07:17:51;3.30;;;2.30;;
2161;SDS011;1087;50.226;8.682;2022-09-09T07:20:17;3.63;;;2.50;;
2161;SDS011;1087;50.226;8.682;2022-09-09T07:22:44;3.37;;;2.30;;
2161;SDS011;1087;50.226;8.682;2022-09-09T07:25:09;2.37;;;1.80;;
2161;SDS011;1087;50.226;8.682;2022-09-09T07:27:35;5.10;;;2.07;;
2161;SDS011;1087;50.226;8.682;2022-09-09T07:30:00;5.00;;;2.33;;
2161;SDS011;1087;50.226;8.682;2022-09-09T07:32:27;2.47;;;2.27;;
2161;SDS011;1087;50.226;8.682;2022-09-09T07:34:52;2.50;;;2.30;;
2161;SDS011;1087;50.226;8.682;2022-09-09T07:37:18;6.00;;;2.20;;
2161;SDS011;1087;50.226;8.682;2022-09-09T07:39:43;2.87;;;2.00;;
2161;SDS011;1087;50.226;8.682;2022-09-09T07:42:09;6.27;;;2.50;;
2161;SDS011;1087;50.226;8.682;2022-09-09T07:44:36;4.27;;;2.47;;
2161;SDS011;1087;50.226;8.682;2022-09-09T07:47:04;2.20;;;1.97;;
2161;SDS011;1087;50.226;8.682;2022-09-09T07:49:30;3.30;;;2.60;;
2161;SDS011;1087;50.226;8.682;2022-09-09T07:51:57;2.33;;;2.13;;
2161;SDS011;1087;50.226;8.682;2022-09-09T07:54:23;3.93;;;2.40;;
2161;SDS011;1087;50.226;8.682;2022-09-09T07:56:48;4.60;;;2.30;;
2161;SDS011;1087;50.226;8.682;2022-09-09T07:59:15;7.70;;;2.57;;
2161;SDS011;1087;50.226;8.682;2022-09-09T08:01:45;3.90;;;2.30;;
2161;SDS011;1087;50.226;8.682;2022-09-09T08:04:14;4.30;;;2.20;;
2161;SDS011;1087;50.226;8.682;2022-09-09T08:06:52;3.13;;;2.30;;
2161;SDS011;1087;50.226;8.682;2022-09-09T08:09:20;3.63;;;2.00;;
2161;SDS011;1087;50.226;8.682;2022-09-09T08:11:46;2.73;;;2.10;;
2161;SDS011;1087;50.226;8.682;2022-09-09T08:14:12;4.57;;;2.70;;
2161;SDS011;1087;50.226;8.682;2022-09-09T08:16:39;2.83;;;2.50;;
2161;SDS011;1087;50.226;8.682;2022-09-09T08:19:07;7.50;;;2.47;;
2161;SDS011;1087;50.226;8.682;2022-09-09T08:21:34;5.10;;;2.23;;
2161;SDS011;1087;50.226;8.682;2022-09-09T08:24:02;3.57;;;2.33;;
2161;SDS011;1087;50.226;8.682;2022-09-09T08:26:34;6.30;;;3.30;;
2161;SDS011;1087;50.226;8.682;2022-09-09T08:29:02;3.67;;;2.20;;
2161;SDS011;1087;50.226;8.682;2022-09-09T08:31:30;2.80;;;2.60;;
2161;SDS011;1087;50.226;8.682;2022-09-09T08:33:58;5.00;;;2.83;;
2161;SDS011;1087;50.226;8.682;2022-09-09T08:36:26;4.23;;;2.70;;
2161;SDS011;1087;50.226;8.682;2022-09-09T08:38:55;3.97;;;2.40;;
2161;SDS011;1087;50.226;8.682;2022-09-09T08:41:27;4.20;;;2.40;;
2161;SDS011;1087;50.226;8.682;2022-09-09T08:58:23;4.47;;;3.17;;
2161;SDS011;1087;50.226;8.682;2022-09-09T09:01:05;5.47;;;2.93;;
2161;SDS011;1087;50.226;8.682;2022-09-09T09:04:02;4.67;;;2.87;;
2161;SDS011;1087;50.226;8.682;2022-09-09T09:06:50;5.40;;;4.07;;
2161;SDS011;1087;50.226;8.682;2022-09-09T09:09:32;5.10;;;2.93;;
2161;SDS011;1087;50.226;8.682;2022-09-09T09:12:01;4.17;;;2.67;;
2161;SDS011;1087;50.226;8.682;2022-09-09T09:14:34;7.33;;;3.00;;
2161;SDS011;1087;50.226;8.682;2022-09-09T09:17:02;4.83;;;3.23;;
2161;SDS011;1087;50.226;8.682;2022-09-09T09:19:31;3.97;;;2.77;;
2161;SDS011;1087;50.226;8.682;2022-09-09T09:22:02;6.10;;;3.07;;
2161;SDS011;1087;50.226;8.682;2022-09-09T09:30:26;3.40;;;2.80;;
2161;SDS011;1087;50.226;8.682;2022-09-09T09:35:33;9.10;;;4.90;;
2161;SDS011;1087;50.226;8.682;2022-09-09T09:37:59;4.63;;;3.40;;
2161;SDS011;1087;50.226;8.682;2022-09-09T09:40:27;4.80;;;3.00;;
2161;SDS011;1087;50.226;8.682;2022-09-09T09:45:32;7.50;;;3.43;;
2161;SDS011;1087;50.226;8.682;2022-09-09T09:48:03;6.50;;;3.10;;
2161;SDS011;1087;50.226;8.682;2022-09-09T09:50:31;4.43;;;3.43;;
2161;SDS011;1087;50.226;8.682;2022-09-09T09:52:59;5.30;;;3.20;;
2161;SDS011;1087;50.226;8.682;2022-09-09T09:55:30;3.27;;;2.90;;
2161;SDS011;1087;50.226;8.682;2022-09-09T09:58:04;4.37;;;3.70;;
2161;SDS011;1087;50.226;8.682;2022-09-09T10:00:31;3.40;;;2.87;;
2161;SDS011;1087;50.226;8.682;2022-09-09T10:03:00;7.30;;;3.50;;
2161;SDS011;1087;50.226;8.682;2022-09-09T10:05:27;3.60;;;3.20;;
2161;SDS011;1087;50.226;8.682;2022-09-09T10:08:02;5.43;;;3.70;;
2161;SDS011;1087;50.226;8.682;2022-09-09T10:19:16;6.17;;;3.50;;
2161;SDS011;1087;50.226;8.682;2022-09-09T10:27:31;5.30;;;3.90;;
2161;SDS011;1087;50.226;8.682;2022-09-09T10:40:45;5.90;;;3.40;;
2161;SDS011;1087;50.226;8.682;2022-09-09T10:52:04;4.83;;;3.47;;
2161;SDS011;1087;50.226;8.682;2022-09-09T10:54:46;5.00;;;3.00;;
2161;SDS011;1087;50.226;8.682;2022-09-09T10:57:31;4.90;;;2.40;;
2161;SDS011;1087;50.226;8.682;2022-09-09T11:00:06;3.37;;;2.63;;
2161;SDS011;1087;50.226;8.682;2022-09-09T11:02:40;3.53;;;2.47;;
2161;SDS011;1087;50.226;8.682;2022-09-09T11:05:14;6.23;;;3.27;;
2161;SDS011;1087;50.226;8.682;2022-09-09T11:07:44;5.77;;;3.03;;
2161;SDS011;1087;50.226;8.682;2022-09-09T11:10:23;6.87;;;3.30;;
2161;SDS011;1087;50.226;8.682;2022-09-09T11:13:01;5.47;;;2.70;;
2161;SDS011;1087;50.226;8.682;2022-09-09T11:15:33;4.20;;;3.60;;
2161;SDS011;1087;50.226;8.682;2022-09-09T11:18:03;4.73;;;3.70;;
2161;SDS011;1087;50.226;8.682;2022-09-09T11:20:31;4.93;;;3.03;;
2161;SDS011;1087;50.226;8.682;2022-09-09T11:22:59;5.17;;;4.03;;
2161;SDS011;1087;50.226;8.682;2022-09-09T11:25:34;7.20;;;3.33;;
2161;SDS011;1087;50.226;8.682;2022-09-09T11:31:29;7.27;;;3.50;;
2161;SDS011;1087;50.226;8.682;2022-09-09T11:41:52;4.03;;;3.67;;
2161;SDS011;1087;50.226;8.682;2022-09-09T11:44:19;5.43;;;3.60;;
2161;SDS011;1087;50.226;8.682;2022-09-09T11:46:55;3.60;;;3.30;;
2161;SDS011;1087;50.226;8.682;2022-09-09T11:54:48;3.40;;;2.07;;
2161;SDS011;1087;50.226;8.682;2022-09-09T12:00:00;4.00;;;2.40;;
2161;SDS011;1087;50.226;8.682;2022-09-09T12:02:28;3.73;;;2.00;;
2161;SDS011;1087;50.226;8.682;2022-09-09T12:05:00;2.67;;;2.43;;
2161;SDS011;1087;50.226;8.682;2022-09-09T12:07:47;4.97;;;2.30;;
2161;SDS011;1087;50.226;8.682;2022-09-09T12:10:35;3.57;;;2.77;;
2161;SDS011;1087;50.226;8.682;2022-09-09T12:13:19;3.43;;;2.63;;
2161;SDS011;1087;50.226;8.682;2022-09-09T12:15:49;2.80;;;2.53;;
2161;SDS011;1087;50.226;8.682;2022-09-09T12:18:31;3.07;;;2.30;;
2161;SDS011;1087;50.226;8.682;2022-09-09T12:23:52;5.03;;;2.40;;
2161;SDS011;1087;50.226;8.682;2022-09-09T12:26:37;6.37;;;2.47;;
2161;SDS011;1087;50.226;8.682;2022-09-09T12:31:46;3.93;;;2.13;;
2161;SDS011;1087;50.226;8.682;2022-09-09T12:34:16;3.77;;;2.07;;
2161;SDS011;1087;50.226;8.682;2022-09-09T12:36:41;2.67;;;2.20;;
2161;SDS011;1087;50.226;8.682;2022-09-09T12:39:18;5.03;;;2.37;;
2161;SDS011;1087;50.226;8.682;2022-09-09T12:41:54;2.07;;;1.87;;
2161;SDS011;1087;50.226;8.682;2022-09-09T12:44:22;1.90;;;1.60;;
2161;SDS011;1087;50.226;8.682;2022-09-09T12:46:49;3.93;;;2.03;;
2161;SDS011;1087;50.226;8.682;2022-09-09T12:51:56;4.57;;;2.10;;
2161;SDS011;1087;50.226;8.682;2022-09-09T12:54:22;3.80;;;1.83;;
2161;SDS011;1087;50.226;8.682;2022-09-09T12:56:48;7.73;;;3.10;;
2161;SDS011;1087;50.226;8.682;2022-09-09T13:00:03;3.03;;;1.80;;
2161;SDS011;1087;50.226;8.682;2022-09-09T13:02:24;4.30;;;2.03;;
2161;SDS011;1087;50.226;8.682;2022-09-09T13:04:51;1.53;;;1.10;;
2161;SDS011;1087;50.226;8.682;2022-09-09T13:07:18;1.93;;;1.50;;
2161;SDS011;1087;50.226;8.682;2022-09-09T13:09:45;1.70;;;1.37;;
2161;SDS011;1087;50.226;8.682;2022-09-09T13:12:21;1.47;;;1.10;;
2161;SDS011;1087;50.226;8.682;2022-09-09T13:14:48;1.50;;;1.10;;
2161;SDS011;1087;50.226;8.682;2022-09-09T13:17:19;4.83;;;1.57;;
2161;SDS011;1087;50.226;8.682;2022-09-09T13:19:47;1.90;;;1.70;;
2161;SDS011;1087;50.226;8.682;2022-09-09T13:22:26;5.10;;;3.20;;
2161;SDS011;1087;50.226;8.682;2022-09-09T13:25:01;3.87;;;1.80;;
2161;SDS011;1087;50.226;8.682;2022-09-09T13:27:30;4.00;;;1.97;;
2161;SDS011;1087;50.226;8.682;2022-09-09T13:30:19;4.93;;;2.70;;
2161;SDS011;1087;50.226;8.682;2022-09-09T13:35:45;3.27;;;1.70;;
2161;SDS011;1087;50.226;8.682;2022-09-09T13:38:14;2.37;;;1.60;;
2161;SDS011;1087;50.226;8.682;2022-09-09T13:40:51;3.30;;;1.60;;
2161;SDS011;1087;50.226;8.682;2022-09-09T13:43:20;3.47;;;1.87;;
2161;SDS011;1087;50.226;8.682;2022-09-09T13:45:58;1.80;;;1.60;;
2161;SDS011;1087;50.226;8.682;2022-09-09T13:48:29;1.73;;;1.50;;
2161;SDS011;1087;50.226;8.682;2022-09-09T13:50:56;1.70;;;1.40;;
2161;SDS011;1087;50.226;8.682;2022-09-09T13:53:24;2.07;;;1.40;;
2161;SDS011;1087;50.226;8.682;2022-09-09T13:55:50;2.33;;;1.97;;
2161;SDS011;1087;50.226;8.682;2022-09-09T13:58:17;2.03;;;1.47;;
2161;SDS011;1087;50.226;8.682;2022-09-09T14:00:46;2.00;;;1.60;;
2161;SDS011;1087;50.226;8.682;2022-09-09T14:03:12;4.30;;;1.73;;
2161;SDS011;1087;50.226;8.682;2022-09-09T14:05:38;2.97;;;1.83;;
2161;SDS011;1087;50.226;8.682;2022-09-09T14:08:04;4.67;;;2.10;;
2161;SDS011;1087;50.226;8.682;2022-09-09T14:10:31;1.80;;;1.20;;
2161;SDS011;1087;50.226;8.682;2022-09-09T14:12:57;1.90;;;1.30;;
2161;SDS011;1087;50.226;8.682;2022-09-09T14:15:23;1.97;;;1.43;;
2161;SDS011;1087;50.226;8.682;2022-09-09T14:17:48;3.33;;;1.20;;
2161;SDS011;1087;50.226;8.682;2022-09-09T14:20:14;2.13;;;1.20;;
2161;SDS011;1087;50.226;8.682;2022-09-09T14:22:40;3.60;;;1.30;;
2161;SDS011;1087;50.226;8.682;2022-09-09T14:25:06;1.90;;;1.07;;
2161;SDS011;1087;50.226;8.682;2022-09-09T14:27:32;2.40;;;1.17;;
2161;SDS011;1087;50.226;8.682;2022-09-09T14:29:58;2.13;;;1.10;;
2161;SDS011;1087;50.226;8.682;2022-09-09T14:32:25;5.80;;;1.47;;
2161;SDS011;1087;50.226;8.682;2022-09-09T14:34:51;2.37;;;1.40;;
2161;SDS011;1087;50.226;8.682;2022-09-09T14:37:17;1.53;;;1.10;;
2161;SDS011;1087;50.226;8.682;2022-09-09T14:39:43;1.97;;;1.00;;
2161;SDS011;1087;50.226;8.682;2022-09-09T14:42:13;2.17;;;1.53;;
2161;SDS011;1087;50.226;8.682;2022-09-09T14:44:38;1.10;;;0.97;;
2161;SDS011;1087;50.226;8.682;2022-09-09T14:47:05;1.60;;;1.30;;
2161;SDS011;1087;50.226;8.682;2022-09-09T14:49:32;2.50;;;1.37;;
2161;SDS011;1087;50.226;8.682;2022-09-09T14:51:59;1.57;;;1.10;;
2161;SDS011;1087;50.226;8.682;2022-09-09T14:54:24;3.93;;;1.90;;
2161;SDS011;1087;50.226;8.682;2022-09-09T14:56:50;2.40;;;1.10;;
2161;SDS011;1087;50.226;8.682;2022-09-09T14:59:15;2.50;;;1.40;;
2161;SDS011;1087;50.226;8.682;2022-09-09T15:01:41;6.00;;;2.03;;
2161;SDS011;1087;50.226;8.682;2022-09-09T15:04:06;3.73;;;1.37;;
2161;SDS011;1087;50.226;8.682;2022-09-09T15:06:33;2.50;;;1.40;;
2161;SDS011;1087;50.226;8.682;2022-09-09T15:09:02;2.57;;;1.20;;
2161;SDS011;1087;50.226;8.682;2022-09-09T15:11:29;3.03;;;1.60;;
2161;SDS011;1087;50.226;8.682;2022-09-09T15:13:58;3.03;;;1.50;;
2161;SDS011;1087;50.226;8.682;2022-09-09T15:16:24;1.53;;;1.43;;
2161;SDS011;1087;50.226;8.682;2022-09-09T15:18:55;3.40;;;1.30;;
2161;SDS011;1087;50.226;8.682;2022-09-09T15:21:22;5.50;;;1.40;;
2161;SDS011;1087;50.226;8.682;2022-09-09T15:23:49;1.70;;;1.33;;
2161;SDS011;1087;50.226;8.682;2022-09-09T15:26:16;2.50;;;1.53;;
2161;SDS011;1087;50.226;8.682;2022-09-09T15:28:42;2.33;;;1.50;;
2161;SDS011;1087;50.226;8.682;2022-09-09T15:31:11;2.33;;;1.70;;
2161;SDS011;1087;50.226;8.682;2022-09-09T15:33:51;3.57;;;1.60;;
2161;SDS011;1087;50.226;8.682;2022-09-09T15:36:18;3.60;;;1.57;;
2161;SDS011;1087;50.226;8.682;2022-09-09T15:38:47;6.63;;;1.63;;
2161;SDS011;1087;50.226;8.682;2022-09-09T15:41:13;3.27;;;1.50;;
2161;SDS011;1087;50.226;8.682;2022-09-09T15:43:46;3.67;;;1.50;;
2161;SDS011;1087;50.226;8.682;2022-09-09T15:46:25;2.23;;;1.27;;
2161;SDS011;1087;50.226;8.682;2022-09-09T15:48:53;2.43;;;1.60;;
2161;SDS011;1087;50.226;8.682;2022-09-09T15:51:20;2.73;;;1.23;;
2161;SDS011;1087;50.226;8.682;2022-09-09T15:53:46;2.33;;;1.60;;
2161;SDS011;1087;50.226;8.682;2022-09-09T15:56:12;2.57;;;1.20;;
2161;SDS011;1087;50.226;8.682;2022-09-09T15:58:37;2.27;;;1.60;;
2161;SDS011;1087;50.226;8.682;2022-09-09T16:01:03;2.47;;;1.60;;
2161;SDS011;1087;50.226;8.682;2022-09-09T16:03:34;4.00;;;1.40;;
2161;SDS011;1087;50.226;8.682;2022-09-09T16:05:59;2.13;;;1.13;;
2161;SDS011;1087;50.226;8.682;2022-09-09T16:08:31;2.47;;;1.10;;
2161;SDS011;1087;50.226;8.682;2022-09-09T16:11:03;2.00;;;1.30;;
2161;SDS011;1087;50.226;8.682;2022-09-09T16:13:34;5.37;;;1.53;;
2161;SDS011;1087;50.226;8.682;2022-09-09T16:16:04;2.13;;;1.17;;
2161;SDS011;1087;50.226;8.682;2022-09-09T16:18:41;3.20;;;1.60;;
2161;SDS011;1087;50.226;8.682;2022-09-09T16:21:08;1.80;;;1.10;;
2161;SDS011;1087;50.226;8.682;2022-09-09T16:23:39;1.80;;;1.50;;
2161;SDS011;1087;50.226;8.682;2022-09-09T16:26:05;3.77;;;1.50;;
2161;SDS011;1087;50.226;8.682;2022-09-09T16:28:30;1.90;;;1.37;;
2161;SDS011;1087;50.226;8.682;2022-09-09T16:30:56;2.70;;;1.30;;
2161;SDS011;1087;50.226;8.682;2022-09-09T16:33:23;2.10;;;1.43;;
2161;SDS011;1087;50.226;8.682;2022-09-09T16:35:48;2.00;;;1.50;;
2161;SDS011;1087;50.226;8.682;2022-09-09T16:38:14;3.47;;;1.27;;
2161;SDS011;1087;50.226;8.682;2022-09-09T16:40:40;5.07;;;1.77;;
2161;SDS011;1087;50.226;8.682;2022-09-09T16:43:06;1.20;;;1.10;;
2161;SDS011;1087;50.226;8.682;2022-09-09T16:45:32;2.70;;;1.40;;
2161;SDS011;1087;50.226;8.682;2022-09-09T16:47:58;2.13;;;1.43;;
2161;SDS011;1087;50.226;8.682;2022-09-09T16:50:25;2.83;;;2.40;;
2161;SDS011;1087;50.226;8.682;2022-09-09T16:52:51;2.33;;;1.60;;
2161;SDS011;1087;50.226;8.682;2022-09-09T16:55:18;2.40;;;1.40;;
2161;SDS011;1087;50.226;8.682;2022-09-09T16:57:45;4.60;;;1.70;;
2161;SDS011;1087;50.226;8.682;2022-09-09T17:00:14;2.87;;;1.67;;
2161;SDS011;1087;50.226;8.682;2022-09-09T17:02:41;1.60;;;1.50;;
2161;SDS011;1087;50.226;8.682;2022-09-09T17:05:08;2.87;;;1.80;;
2161;SDS011;1087;50.226;8.682;2022-09-09T17:07:34;2.83;;;1.73;;
2161;SDS011;1087;50.226;8.682;2022-09-09T17:10:00;2.67;;;1.50;;
2161;SDS011;1087;50.226;8.682;2022-09-09T17:12:26;1.70;;;1.40;;
2161;SDS011;1087;50.226;8.682;2022-09-09T17:14:51;2.20;;;1.40;;
2161;SDS011;1087;50.226;8.682;2022-09-09T17:17:17;2.70;;;1.50;;
2161;SDS011;1087;50.226;8.682;2022-09-09T17:19:42;3.57;;;1.50;;
2161;SDS011;1087;50.226;8.682;2022-09-09T17:22:08;2.00;;;1.50;;
2161;SDS011;1087;50.226;8.682;2022-09-09T17:24:34;1.70;;;1.40;;
2161;SDS011;1087;50.226;8.682;2022-09-09T17:27:00;2.20;;;1.40;;
2161;SDS011;1087;50.226;8.682;2022-09-09T17:29:27;1.40;;;1.20;;
2161;SDS011;1087;50.226;8.682;2022-09-09T17:31:52;2.43;;;1.57;;
2161;SDS011;1087;50.226;8.682;2022-09-09T17:34:19;5.87;;;1.87;;
2161;SDS011;1087;50.226;8.682;2022-09-09T17:36:45;4.47;;;1.57;;
2161;SDS011;1087;50.226;8.682;2022-09-09T17:39:11;1.57;;;1.20;;
2161;SDS011;1087;50.226;8.682;2022-09-09T17:41:37;2.40;;;1.40;;
2161;SDS011;1087;50.226;8.682;2022-09-09T17:44:05;4.20;;;1.47;;